createdAt,value
2022-08-07T00:03:14.514Z,15.27
2022-08-07T00:08:36.427Z,15.33
2022-08-07T00:14:06.300Z,15.27
2022-08-07T00:20:00.031Z,15.32
2022-08-07T00:25:11.068Z,15.13
2022-08-07T00:30:38.751Z,15.16
2022-08-07T00:36:03.090Z,15.04
2022-08-07T00:41:26.570Z,15.03
2022-08-07T00:46:50.489Z,15.09
2022-08-07T00:52:13.067Z,14.93
2022-08-07T00:57:35.205Z,14.74
2022-08-07T01:02:59.326Z,14.78
2022-08-07T01:08:21.856Z,14.72
2022-08-07T01:13:55.992Z,14.68
2022-08-07T01:19:19.887Z,14.57
2022-08-07T01:24:42.463Z,14.41
2022-08-07T01:30:05.314Z,14.57
2022-08-07T01:35:52.820Z,14.52
2022-08-07T01:41:09.976Z,14.49
2022-08-07T01:46:33.311Z,14.47
2022-08-07T01:52:03.936Z,14.41
2022-08-07T01:57:30.080Z,14.32
2022-08-07T02:03:18.486Z,14.36
2022-08-07T02:08:46.311Z,14.36
2022-08-07T02:14:35.903Z,14.34
2022-08-07T02:20:04.718Z,14.22
2022-08-07T02:26:31.623Z,14.15
2022-08-07T02:31:28.499Z,14.07
2022-08-07T02:36:52.182Z,13.97
2022-08-07T02:42:16.378Z,14.05
2022-08-07T02:47:45.412Z,13.97
2022-08-07T02:53:17.967Z,13.94
2022-08-07T02:58:47.435Z,13.95
2022-08-07T03:04:14.005Z,13.94
2022-08-07T03:09:43.356Z,13.98
2022-08-07T03:15:08.154Z,14.04
2022-08-07T03:20:30.213Z,14.13
2022-08-07T03:25:58.492Z,14.22
2022-08-07T03:31:26.132Z,14.37
2022-08-07T03:37:12.678Z,15.22
2022-08-07T03:42:36.280Z,16.75
2022-08-07T03:47:59.643Z,17.99
2022-08-07T03:53:50.155Z,19.21
2022-08-07T03:59:10.047Z,21.20
2022-08-07T04:04:35.039Z,24.51
2022-08-07T04:09:56.996Z,27.42
2022-08-07T04:15:24.277Z,28.67
2022-08-07T04:20:54.610Z,29.75
2022-08-07T04:26:21.800Z,26.86
2022-08-07T04:32:03.117Z,25.79
2022-08-07T04:37:28.834Z,25.61
2022-08-07T04:42:51.723Z,26.12
2022-08-07T04:48:26.832Z,25.49
2022-08-07T04:54:05.683Z,25.97
2022-08-07T05:00:12.066Z,27.81
2022-08-07T05:05:59.996Z,33.45
2022-08-07T05:11:58.884Z,35.25
2022-08-07T05:17:13.620Z,36.91
2022-08-07T05:23:02.070Z,36.34
2022-08-07T05:28:26.717Z,39.48
2022-08-07T05:34:01.029Z,41.13
2022-08-07T05:40:16.671Z,39.89
2022-08-07T05:45:26.401Z,40.89
2022-08-07T05:50:51.734Z,39.93
2022-08-07T05:56:15.296Z,41.43
2022-08-07T06:01:40.695Z,40.78
2022-08-07T06:07:03.891Z,41.90
2022-08-07T06:12:27.831Z,41.24
2022-08-07T06:17:55.369Z,41.29
2022-08-07T06:23:47.174Z,39.93
2022-08-07T06:28:59.837Z,39.56
2022-08-07T06:34:29.630Z,38.29
2022-08-07T06:40:17.139Z,39.98
2022-08-07T06:45:35.683Z,40.00
2022-08-07T06:51:08.023Z,41.72
2022-08-07T06:56:31.601Z,41.47
2022-08-07T07:01:54.839Z,39.02
2022-08-07T07:08:00.274Z,39.70
2022-08-07T07:13:55.325Z,37.57
2022-08-07T07:19:34.018Z,39.97
2022-08-07T07:24:56.870Z,41.43
2022-08-07T07:30:37.726Z,36.17
2022-08-07T07:36:05.668Z,36.61
2022-08-07T07:42:02.150Z,38.08
2022-08-07T07:47:23.816Z,38.71
2022-08-07T07:52:47.362Z,37.22
2022-08-07T07:58:10.114Z,31.92
2022-08-07T08:04:10.435Z,36.22
2022-08-07T08:09:20.627Z,36.12
2022-08-07T08:14:45.353Z,35.00
2022-08-07T08:20:18.168Z,35.15
2022-08-07T08:25:49.201Z,35.66
2022-08-07T08:31:30.151Z,36.44
2022-08-07T08:36:59.945Z,36.28
2022-08-07T08:42:31.931Z,35.58
2022-08-07T08:48:06.749Z,34.64
2022-08-07T08:53:39.313Z,34.27
2022-08-07T08:59:21.765Z,34.65
2022-08-07T09:04:57.603Z,34.33
2022-08-07T09:10:34.112Z,33.82
2022-08-07T09:16:21.523Z,34.36
2022-08-07T09:24:28.291Z,31.31
2022-08-07T09:28:01.058Z,27.95
2022-08-07T09:33:40.898Z,28.66
2022-08-07T09:39:54.568Z,28.37
2022-08-07T09:47:51.687Z,28.26
2022-08-07T09:52:09.873Z,26.23
2022-08-07T09:57:19.052Z,26.51
2022-08-07T10:02:55.476Z,26.76
2022-08-07T10:08:42.622Z,26.43
2022-08-07T10:14:31.219Z,26.27
2022-08-07T10:20:12.920Z,26.96
2022-08-07T10:25:47.016Z,26.69
2022-08-07T10:31:50.903Z,25.95
2022-08-07T10:37:59.978Z,24.69
2022-08-07T10:43:34.621Z,24.31
2022-08-07T10:49:13.231Z,24.09
2022-08-07T10:55:01.095Z,24.33
2022-08-07T11:00:39.172Z,24.00
2022-08-07T11:06:22.979Z,23.49
2022-08-07T11:12:14.207Z,23.96
2022-08-07T11:17:49.895Z,23.90
2022-08-07T11:23:38.700Z,23.49
2022-08-07T11:29:41.189Z,23.54
2022-08-07T11:35:09.354Z,24.16
2022-08-07T11:40:55.517Z,23.44
2022-08-07T11:46:36.693Z,22.70
2022-08-07T11:52:37.714Z,22.32
2022-08-07T11:58:14.591Z,22.59
2022-08-07T12:04:10.633Z,23.30
2022-08-07T12:09:37.682Z,23.63
2022-08-07T12:15:17.207Z,23.97
2022-08-07T12:22:36.567Z,23.72
2022-08-07T12:27:28.131Z,24.02
2022-08-07T12:33:18.741Z,23.99
2022-08-07T12:38:47.441Z,24.23
2022-08-07T12:44:21.585Z,24.46
2022-08-07T12:50:05.049Z,24.02
2022-08-07T12:56:02.125Z,23.73
2022-08-07T13:01:55.866Z,24.54
2022-08-07T13:08:12.512Z,23.94
2022-08-07T13:13:48.409Z,23.58
2022-08-07T13:19:22.350Z,24.35
2022-08-07T13:25:00.068Z,24.90
2022-08-07T13:30:40.439Z,24.44
2022-08-07T13:36:17.529Z,24.22
2022-08-07T13:41:47.311Z,23.69
2022-08-07T13:47:15.933Z,23.52
2022-08-07T13:52:48.153Z,24.28
2022-08-07T13:58:18.952Z,24.72
2022-08-07T14:04:07.699Z,24.15
2022-08-07T14:10:02.660Z,24.30
2022-08-07T14:15:27.431Z,24.21
2022-08-07T14:21:08.389Z,23.70
2022-08-07T14:26:58.598Z,23.13
2022-08-07T14:32:24.989Z,23.09
2022-08-07T14:38:03.251Z,22.96
2022-08-07T14:43:55.949Z,22.81
2022-08-07T14:49:17.498Z,23.53
2022-08-07T15:00:43.247Z,24.13
2022-08-07T15:06:05.633Z,23.72
2022-08-07T15:11:52.813Z,23.41
2022-08-07T15:17:25.335Z,23.17
2022-08-07T15:22:53.845Z,22.90
2022-08-07T15:34:02.129Z,22.73
2022-08-07T15:39:25.094Z,22.84
2022-08-07T15:44:51.757Z,23.03
2022-08-07T15:56:06.191Z,22.81
2022-08-07T16:01:38.527Z,22.89
2022-08-07T16:08:32.924Z,23.16
2022-08-07T16:13:57.555Z,23.20
2022-08-07T16:19:41.857Z,22.73
2022-08-07T16:25:54.380Z,22.62
2022-08-07T16:31:57.100Z,22.84
2022-08-07T16:38:04.037Z,22.92
2022-08-07T16:44:02.785Z,22.86
2022-08-07T16:50:27.885Z,22.81
2022-08-07T16:55:47.160Z,22.71
2022-08-07T17:01:09.781Z,22.65
2022-08-07T17:07:03.293Z,22.53
2022-08-07T17:12:44.149Z,22.29
2022-08-07T17:18:16.365Z,22.25
2022-08-07T17:24:06.002Z,22.06
2022-08-07T17:30:15.638Z,21.91
2022-08-07T17:35:55.202Z,21.85
2022-08-07T17:42:04.501Z,21.68
2022-08-07T17:47:58.033Z,21.48
2022-08-07T17:53:59.495Z,21.35
2022-08-07T17:59:20.991Z,21.28
2022-08-07T18:04:55.329Z,21.19
2022-08-07T18:10:32.257Z,21.05
2022-08-07T18:16:02.448Z,20.86
2022-08-07T18:21:53.611Z,20.74
2022-08-07T18:27:39.199Z,20.59
2022-08-07T18:33:10.767Z,20.44
2022-08-07T18:40:06.787Z,20.42
2022-08-07T18:45:44.124Z,20.33
2022-08-07T18:52:52.057Z,20.30
2022-08-07T18:57:39.982Z,20.05
2022-08-07T19:03:38.050Z,20.09
2022-08-07T19:09:55.984Z,20.03
2022-08-07T19:16:05.903Z,20.13
2022-08-07T19:21:44.223Z,19.94
2022-08-07T19:28:58.102Z,19.83
2022-08-07T19:33:01.408Z,19.75
2022-08-07T19:38:35.148Z,19.73
2022-08-07T19:44:21.213Z,19.72
2022-08-07T19:49:57.804Z,19.56
2022-08-07T19:55:21.407Z,19.39
2022-08-07T20:00:53.859Z,19.32
2022-08-07T20:06:30.409Z,19.25
2022-08-07T20:12:22.424Z,19.13
2022-08-07T20:17:40.397Z,19.01
2022-08-07T20:23:10.884Z,18.52
2022-08-07T20:28:52.622Z,18.73
2022-08-07T20:34:34.467Z,18.68
2022-08-07T20:40:05.336Z,18.48
2022-08-07T20:46:26.007Z,18.12
2022-08-07T20:51:35.841Z,18.13
2022-08-07T20:57:03.693Z,18.08
2022-08-07T21:02:28.273Z,18.04
2022-08-07T21:07:56.905Z,18.06
2022-08-07T21:13:24.675Z,17.90
2022-08-07T21:19:03.649Z,17.68
2022-08-07T21:25:04.716Z,17.66
2022-08-07T21:30:54.927Z,17.60
2022-08-07T21:36:34.712Z,17.54
2022-08-07T21:42:14.999Z,17.46
2022-08-07T21:48:28.614Z,17.29
2022-08-07T21:53:53.681Z,17.20
2022-08-07T22:00:04.602Z,17.13
2022-08-07T22:05:45.878Z,16.99
2022-08-07T22:11:10.443Z,16.84
2022-08-07T22:16:54.708Z,16.88
2022-08-07T22:22:28.523Z,16.73
2022-08-07T22:28:29.634Z,16.77
2022-08-07T22:34:04.455Z,16.69
2022-08-07T22:39:58.974Z,16.71
2022-08-07T22:46:21.583Z,16.64
2022-08-07T22:51:38.424Z,16.52
2022-08-07T22:57:20.404Z,16.47
2022-08-07T23:02:56.994Z,16.38
2022-08-07T23:08:58.472Z,16.06
2022-08-07T23:15:08.191Z,16.12
2022-08-07T23:20:52.813Z,16.05
2022-08-07T23:26:25.254Z,16.10
2022-08-07T23:34:21.412Z,15.94
2022-08-07T23:38:36.596Z,15.88
2022-08-07T23:44:13.854Z,15.94
2022-08-07T23:50:06.655Z,16.03
2022-08-07T23:56:01.218Z,16.05
